Time;durP1;ratioP1;P1;durP2;ratioP2;P2;SDS_P1;SDS_P2;PMS_P1;PMS_P2;Temp;Humidity;BMP_temperature;BMP_pressure;BME280_temperature;BME280_humidity;BME280_pressure;Samples;Min_cycle;Max_cycle;Signal;HPM_P1;HPM_P2
2020/12/06 00:02:33;;;;;;;20.97;13.27;;;0.20;99.90;;;-2.00;100.00;100111.28;5015940;28;20207;-79
2020/12/06 00:05:19;;;;;;;22.07;13.20;;;0.10;99.90;;;-1.69;100.00;100117.59;5006084;28;20236;-81
2020/12/06 00:08:05;;;;;;;23.53;13.70;;;0.20;99.90;;;-1.79;100.00;100119.19;5020457;28;20251;-81
2020/12/06 00:10:50;;;;;;;25.80;14.70;;;0.20;99.90;;;-1.54;100.00;100132.16;5007028;28;20303;-80
2020/12/06 00:13:35;;;;;;;22.67;14.80;;;0.40;99.90;;;-1.54;100.00;100127.09;5017490;28;20311;-81
2020/12/06 00:16:21;;;;;;;27.33;16.03;;;0.20;99.90;;;-1.36;100.00;100126.47;5017924;28;20235;-80
2020/12/06 00:19:07;;;;;;;22.83;13.43;;;0.20;99.90;;;-1.54;100.00;100116.94;5011234;28;20220;-82
2020/12/06 00:21:52;;;;;;;27.53;16.43;;;0.20;99.90;;;-1.55;100.00;100107.66;5009228;28;20212;-80
2020/12/06 00:24:37;;;;;;;25.43;15.77;;;0.20;99.90;;;-1.45;100.00;100098.44;5020922;28;20247;-81
2020/12/06 00:27:23;;;;;;;28.13;18.10;;;0.30;99.90;;;-1.38;100.00;100101.94;5018558;28;20337;-80
2020/12/06 00:30:10;;;;;;;27.33;18.50;;;0.30;99.90;;;-1.39;100.00;100113.75;5018187;28;20215;-80
2020/12/06 00:32:55;;;;;;;33.20;19.00;;;0.30;99.90;;;-1.22;100.00;100119.03;5003741;28;20254;-80
2020/12/06 00:35:40;;;;;;;31.53;18.13;;;0.30;99.90;;;-1.35;100.00;100109.56;5009265;28;20227;-80
2020/12/06 00:38:26;;;;;;;31.30;17.33;;;0.30;99.90;;;-1.74;100.00;100110.78;5012178;28;20248;-80
2020/12/06 00:41:13;;;;;;;24.27;15.83;;;0.40;99.90;;;-1.78;100.00;100094.69;5009801;28;20219;-79
2020/12/06 00:43:58;;;;;;;25.80;15.50;;;0.40;99.90;;;-1.83;100.00;100097.16;5006173;28;20639;-81
2020/12/06 00:46:44;;;;;;;25.67;15.07;;;0.40;99.90;;;-1.88;100.00;100098.75;5016221;28;20298;-81
2020/12/06 00:49:29;;;;;;;23.27;14.47;;;0.40;99.90;;;-2.01;100.00;100089.28;5010392;28;20258;-80
2020/12/06 00:52:15;;;;;;;25.83;14.67;;;0.30;99.90;;;-1.98;100.00;100084.25;5014417;28;20688;-81
2020/12/06 00:55:01;;;;;;;21.40;13.27;;;0.30;99.90;;;-1.86;100.00;100092.06;5024430;28;20244;-81
2020/12/06 00:57:46;;;;;;;24.20;14.03;;;0.30;99.90;;;-1.69;100.00;100096.47;5013225;28;20211;-81
2020/12/06 01:00:31;;;;;;;26.17;16.20;;;0.30;99.90;;;-1.55;100.00;100089.91;5019752;28;20563;-81
2020/12/06 01:03:17;;;;;;;23.43;13.13;;;0.30;99.90;;;-1.70;100.00;100092.25;5008817;28;20203;-81
2020/12/06 01:06:02;;;;;;;27.20;15.50;;;0.30;99.90;;;-1.63;100.00;100083.88;5019584;28;20784;-80
2020/12/06 01:08:48;;;;;;;27.47;16.57;;;0.30;99.90;;;-1.54;100.00;100080.59;5016685;28;20688;-80
2020/12/06 01:11:33;;;;;;;27.27;16.00;;;0.30;99.90;;;-1.46;100.00;100086.59;5028161;28;20212;-80
2020/12/06 01:14:19;;;;;;;32.90;16.60;;;0.40;99.90;;;-1.52;100.00;100082.34;5027736;28;20227;-81
2020/12/06 01:17:04;;;;;;;28.30;15.97;;;0.40;99.90;;;-1.46;100.00;100090.00;5023782;28;20215;-79
2020/12/06 01:19:49;;;;;;;30.50;17.57;;;0.50;99.90;;;-1.34;100.00;100101.13;5030752;28;20203;-79
2020/12/06 01:22:35;;;;;;;28.23;17.63;;;0.50;99.90;;;-1.29;100.00;100096.94;5018532;28;20212;-79
2020/12/06 01:25:21;;;;;;;33.50;18.63;;;0.60;99.90;;;-1.26;100.00;100102.06;5023807;28;20275;-80
2020/12/06 01:28:07;;;;;;;29.73;19.07;;;0.70;99.90;;;-1.28;100.00;100107.13;5029442;28;20215;-79
2020/12/06 01:30:52;;;;;;;26.77;17.13;;;0.60;99.90;;;-1.32;100.00;100107.91;5028565;28;20250;-78
2020/12/06 01:33:37;;;;;;;23.33;15.50;;;0.60;99.90;;;-1.50;100.00;100111.09;5024100;28;20228;-81
2020/12/06 01:36:22;;;;;;;27.27;16.10;;;0.70;99.90;;;-1.01;100.00;100112.47;5030856;28;20200;-80
2020/12/06 01:39:08;;;;;;;25.43;15.50;;;0.70;99.90;;;-1.20;100.00;100107.19;5022631;28;20212;-81
2020/12/06 01:41:55;;;;;;;25.97;14.20;;;0.70;99.90;;;-1.67;100.00;100112.56;5018365;28;20204;-79
2020/12/06 01:44:40;;;;;;;23.77;14.43;;;0.70;99.90;;;-1.56;100.00;100110.19;5024239;28;20240;-78
2020/12/06 01:47:28;;;;;;;27.10;17.33;;;0.60;99.90;;;-1.52;100.00;100106.81;5027085;28;20220;-80
2020/12/06 01:50:13;;;;;;;27.40;16.63;;;0.60;99.90;;;-1.49;100.00;100111.94;5030975;28;20271;-79
2020/12/06 01:52:59;;;;;;;28.67;17.60;;;0.60;99.90;;;-1.46;100.00;100115.38;5025950;28;20263;-79
2020/12/06 01:55:46;;;;;;;27.33;16.53;;;0.60;99.90;;;-1.52;100.00;100106.81;5017174;28;20208;-79
2020/12/06 01:58:33;;;;;;;26.43;17.77;;;0.70;99.90;;;-1.64;100.00;100107.53;5014594;28;20335;-80
2020/12/06 02:01:18;;;;;;;23.77;15.23;;;0.60;99.90;;;-1.65;100.00;100109.22;5016395;28;20283;-81
2020/12/06 02:04:04;;;;;;;27.30;16.40;;;0.70;99.90;;;-1.64;100.00;100107.53;5015971;28;20768;-80
2020/12/06 02:06:53;;;;;;;24.80;15.67;;;0.70;99.90;;;-1.56;100.00;100100.88;5010524;28;20199;-80
2020/12/06 02:09:38;;;;;;;28.33;16.57;;;0.70;99.90;;;-1.59;100.00;100101.69;5015787;28;20285;-80
2020/12/06 02:12:23;;;;;;;24.80;15.60;;;0.70;99.90;;;-1.60;100.00;100104.19;5017610;28;20664;-78
2020/12/06 02:15:09;;;;;;;25.67;16.73;;;0.70;99.90;;;-1.55;100.00;100097.50;5009694;28;20286;-80
2020/12/06 02:17:54;;;;;;;24.67;15.30;;;0.70;99.90;;;-1.64;100.00;100102.44;5020529;28;20294;-81
2020/12/06 02:20:41;;;;;;;23.13;14.47;;;0.70;99.90;;;-1.71;100.00;100105.72;5021369;28;20207;-80
2020/12/06 02:23:26;;;;;;;23.07;15.37;;;0.70;99.90;;;-1.62;100.00;100118.56;5010150;28;20263;-81
2020/12/06 02:26:11;;;;;;;22.93;14.03;;;0.70;99.90;;;-1.65;100.00;100115.97;5021560;28;20211;-80
2020/12/06 02:28:57;;;;;;;22.60;14.60;;;0.70;99.90;;;-1.81;100.00;100115.75;5022245;28;20571;-82
2020/12/06 02:31:43;;;;;;;23.17;14.70;;;0.70;99.90;;;-1.89;100.00;100116.50;5020332;28;20207;-81
2020/12/06 02:34:28;;;;;;;20.23;13.23;;;0.80;99.90;;;-1.86;100.00;100108.94;5020310;28;20282;-79
2020/12/06 02:37:14;;;;;;;23.87;14.53;;;0.80;99.90;;;-1.85;100.00;100108.94;5009423;28;20208;-81
2020/12/06 02:39:59;;;;;;;22.80;14.83;;;0.80;99.90;;;-1.75;100.00;100119.22;5030250;28;20235;-81
2020/12/06 02:42:45;;;;;;;20.93;12.57;;;0.80;99.90;;;-1.96;100.00;100125.72;5011030;28;20699;-80
2020/12/06 02:45:30;;;;;;;23.97;13.87;;;0.80;99.90;;;-2.07;100.00;100129.75;5018178;28;20223;-80
2020/12/06 02:48:16;;;;;;;24.50;14.87;;;0.80;99.90;;;-2.12;100.00;100124.63;5020331;28;20302;-80
2020/12/06 02:51:02;;;;;;;21.40;13.90;;;0.80;99.90;;;-2.21;100.00;100130.41;5009330;28;20212;-82
2020/12/06 02:53:49;;;;;;;20.00;13.47;;;0.80;99.90;;;-2.16;100.00;100113.56;5020161;28;20487;-82
2020/12/06 02:56:34;;;;;;;20.63;12.70;;;0.70;99.90;;;-2.04;100.00;100096.84;5019366;28;20716;-78
2020/12/06 02:59:19;;;;;;;21.83;13.33;;;0.70;99.90;;;-1.99;100.00;100077.53;5020215;28;20682;-80
2020/12/06 03:02:04;;;;;;;20.67;12.27;;;0.70;99.90;;;-2.01;100.00;100061.41;5020992;28;20204;-79
2020/12/06 03:04:50;;;;;;;20.43;12.83;;;0.70;99.90;;;-1.97;100.00;100069.09;5019440;28;20243;-81
2020/12/06 03:07:35;;;;;;;22.67;13.67;;;0.70;99.90;;;-1.94;100.00;100071.66;5019547;28;20204;-80
2020/12/06 03:10:21;;;;;;;22.53;14.23;;;0.70;99.90;;;-1.87;100.00;100076.81;5020787;28;20272;-79
2020/12/06 03:13:07;;;;;;;21.37;14.87;;;0.70;99.90;;;-1.58;100.00;100082.22;5023450;28;20211;-80
2020/12/06 03:15:52;;;;;;;26.00;15.87;;;0.70;99.90;;;-1.53;100.00;100083.16;5001855;28;20200;-77
2020/12/06 03:18:38;;;;;;;24.43;15.90;;;0.70;99.90;;;-1.52;100.00;100087.41;5021005;28;20578;-81
2020/12/06 03:21:23;;;;;;;23.77;15.90;;;0.70;99.90;;;-1.53;100.00;100090.75;5020596;28;20325;-81
2020/12/06 03:24:08;;;;;;;24.87;16.00;;;0.70;99.90;;;-1.50;100.00;100100.94;5017973;28;20731;-80
2020/12/06 03:26:54;;;;;;;28.70;17.20;;;0.80;99.90;;;-1.30;100.00;100102.84;5016385;28;20195;-82
2020/12/06 03:29:39;;;;;;;23.13;15.67;;;0.80;99.90;;;-1.46;100.00;100107.75;5020282;28;20255;-81
2020/12/06 03:32:25;;;;;;;27.27;15.77;;;0.80;99.90;;;-1.61;100.00;100108.44;5018068;28;20211;-80
2020/12/06 03:35:11;;;;;;;24.67;14.70;;;0.80;99.90;;;-1.60;100.00;100099.13;5007694;28;20605;-81
2020/12/06 03:37:56;;;;;;;28.43;17.60;;;0.80;99.90;;;-1.41;100.00;100098.50;5016396;28;20213;-80
2020/12/06 03:40:41;;;;;;;27.27;17.80;;;0.80;99.90;;;-1.30;100.00;100101.19;5008734;28;20209;-79
2020/12/06 03:43:28;;;;;;;24.87;16.37;;;0.80;99.90;;;-1.36;100.00;100092.63;5015111;28;20803;-82
2020/12/06 03:46:13;;;;;;;25.47;16.77;;;0.80;99.90;;;-1.38;100.00;100091.78;5015314;28;20255;-79
2020/12/06 03:48:58;;;;;;;28.33;17.70;;;0.80;99.90;;;-1.25;100.00;100081.78;5015673;28;20259;-80
2020/12/06 03:51:44;;;;;;;28.30;17.90;;;0.90;99.90;;;-1.25;100.00;100086.84;5015426;28;20581;-81
2020/12/06 03:54:29;;;;;;;28.03;18.03;;;0.90;99.90;;;-1.24;100.00;100088.56;5013108;28;20223;-81
2020/12/06 03:57:14;;;;;;;29.53;17.97;;;0.90;99.90;;;-1.16;100.00;100090.31;5022774;28;20691;-81
2020/12/06 04:00:00;;;;;;;27.93;18.23;;;0.90;99.90;;;-1.10;100.00;100091.22;5021558;28;20228;-79
2020/12/06 04:02:46;;;;;;;28.23;17.63;;;0.90;99.90;;;-1.14;100.00;100084.41;5012557;28;20572;-80
2020/12/06 04:05:31;;;;;;;28.53;18.90;;;0.90;99.90;;;-1.13;100.00;100088.66;5023536;28;20727;-81
2020/12/06 04:08:16;;;;;;;28.37;17.80;;;1.00;99.90;;;-1.07;100.00;100088.72;5012833;28;20209;-82
2020/12/06 04:11:01;;;;;;;28.53;19.03;;;1.00;99.90;;;-0.99;100.00;100087.94;5023221;28;20483;-78
2020/12/06 04:13:47;;;;;;;30.00;19.20;;;1.00;99.90;;;-0.94;100.00;100092.22;5020454;28;20227;-82
2020/12/06 04:16:33;;;;;;;28.47;18.60;;;1.00;99.90;;;-0.96;100.00;100098.13;5019805;28;20207;-80
2020/12/06 04:19:18;;;;;;;31.17;20.27;;;1.00;99.90;;;-1.03;100.00;100101.44;5021303;28;20228;-81
2020/12/06 04:22:06;;;;;;;27.60;17.60;;;1.10;99.90;;;-1.20;100.00;100112.25;5024612;28;20271;-81
2020/12/06 04:24:53;;;;;;;24.83;16.33;;;1.00;99.90;;;-1.29;100.00;100112.16;5014516;28;20289;-82
2020/12/06 04:27:38;;;;;;;27.77;18.27;;;1.10;99.90;;;-1.27;100.00;100097.81;5024020;28;20267;-82
2020/12/06 04:30:24;;;;;;;23.87;15.67;;;1.10;99.90;;;-1.35;100.00;100100.25;5016802;28;20276;-82
2020/12/06 04:33:10;;;;;;;27.60;16.77;;;1.10;99.90;;;-1.38;100.00;100100.22;5024041;28;20212;-80
2020/12/06 04:35:55;;;;;;;26.00;16.87;;;1.10;99.90;;;-1.31;100.00;100098.63;5022297;28;20251;-81
2020/12/06 04:38:41;;;;;;;26.90;16.97;;;1.10;99.90;;;-1.31;100.00;100091.84;5020033;28;20657;-82
2020/12/06 04:41:26;;;;;;;26.97;17.17;;;1.10;99.90;;;-1.25;100.00;100086.00;5021655;28;20205;-80
2020/12/06 04:44:12;;;;;;;27.33;18.83;;;1.10;99.90;;;-1.27;100.00;100086.00;5024868;28;20302;-81
2020/12/06 04:47:01;;;;;;;27.00;16.17;;;1.10;99.90;;;-1.30;100.00;100083.44;5024256;28;20212;-80
2020/12/06 04:49:52;;;;;;;27.57;16.87;;;1.10;99.90;;;-1.28;100.00;100089.34;5026093;28;20418;-82
2020/12/06 04:52:44;;;;;;;27.87;17.43;;;1.10;99.90;;;-1.20;100.00;100094.50;5014349;28;20289;-82
2020/12/06 04:55:32;;;;;;;26.27;16.63;;;1.20;99.90;;;-1.24;100.00;100087.69;5023801;28;20223;-81
2020/12/06 04:58:25;;;;;;;27.83;17.37;;;1.10;99.90;;;-1.31;100.00;100088.47;5016864;28;20236;-80
2020/12/06 05:01:10;;;;;;;26.73;16.43;;;1.10;99.90;;;-1.32;100.00;100089.31;5012498;28;20289;-81
2020/12/06 05:04:02;;;;;;;28.37;17.77;;;1.10;99.90;;;-1.23;100.00;100091.94;5023599;28;20235;-82
2020/12/06 05:06:48;;;;;;;26.97;16.47;;;1.10;99.90;;;-1.23;100.00;100091.94;5022647;28;20289;-80
2020/12/06 05:09:37;;;;;;;25.47;16.70;;;1.00;99.90;;;-1.23;100.00;100079.25;5021970;28;20204;-80
2020/12/06 05:12:22;;;;;;;31.10;20.90;;;1.10;99.90;;;-1.07;100.00;100082.81;5020625;28;20208;-81
2020/12/06 05:15:07;;;;;;;35.60;21.47;;;1.10;99.90;;;-1.00;100.00;100084.56;5010564;28;20232;-82
2020/12/06 05:17:55;;;;;;;30.80;20.63;;;1.10;99.90;;;-1.01;100.00;100087.94;5011721;28;20216;-81
2020/12/06 05:20:40;;;;;;;31.00;20.17;;;1.10;99.90;;;-0.99;100.00;100093.03;5016905;28;20244;-81
2020/12/06 05:23:26;;;;;;;35.63;22.33;;;1.10;99.90;;;-1.04;100.00;100084.53;5004263;28;20211;-80
2020/12/06 05:26:11;;;;;;;35.50;22.30;;;1.10;99.90;;;-1.02;100.00;100095.53;5009459;28;20205;-79
2020/12/06 05:28:58;;;;;;;32.10;21.77;;;1.10;99.90;;;-1.00;100.00;100098.94;5013020;28;20216;-81
2020/12/06 05:31:43;;;;;;;35.50;21.87;;;1.30;99.90;;;-1.10;100.00;100093.75;5019180;28;20211;-81
2020/12/06 05:34:28;;;;;;;33.23;20.47;;;1.10;99.90;;;-1.09;100.00;100092.09;5022866;28;20228;-81
2020/12/06 05:37:14;;;;;;;32.97;20.40;;;1.20;99.90;;;-1.10;100.00;100070.91;5015422;28;20204;-80
2020/12/06 05:40:06;;;;;;;31.27;20.97;;;1.20;99.90;;;-1.12;100.00;100077.69;5012217;28;20237;-82
2020/12/06 05:42:51;;;;;;;30.47;19.57;;;1.20;99.90;;;-1.14;100.00;100068.34;5022664;28;20223;-82
2020/12/06 05:45:37;;;;;;;31.80;21.23;;;1.20;99.90;;;-1.14;100.00;100064.09;5017203;28;20204;-81
2020/12/06 05:48:26;;;;;;;36.30;21.60;;;1.20;99.90;;;-1.03;100.00;100058.28;5014205;28;20252;-79
2020/12/06 05:51:13;;;;;;;35.63;23.77;;;1.20;99.90;;;-0.91;100.00;100068.56;5015779;28;20252;-82
2020/12/06 05:54:00;;;;;;;39.73;23.80;;;1.20;99.90;;;-0.82;100.00;100073.72;5024758;28;20715;-82
2020/12/06 05:56:50;;;;;;;35.60;22.20;;;1.20;99.90;;;-0.85;100.00;100076.22;5033216;28;20191;-78
2020/12/06 05:59:36;;;;;;;36.67;22.70;;;1.20;99.90;;;-0.87;100.00;100083.00;5027256;28;20200;-79
2020/12/06 06:02:23;;;;;;;37.10;23.07;;;1.20;99.90;;;-0.84;100.00;100083.03;5037120;28;20211;-78
2020/12/06 06:05:09;;;;;;;39.17;23.67;;;1.20;99.90;;;-0.71;100.00;100077.22;5037149;28;20208;-78
2020/12/06 06:08:00;;;;;;;38.73;23.73;;;1.20;99.90;;;-0.66;100.00;100076.41;5029625;28;20207;-80
2020/12/06 06:11:24;;;;;;;36.60;23.53;;;1.30;99.90;;;-0.64;100.00;100067.94;5022361;28;20357;-80
2020/12/06 06:14:11;;;;;;;37.30;23.83;;;1.30;99.90;;;-0.62;100.00;100061.19;5017695;28;20249;-81
2020/12/06 06:16:58;;;;;;;36.17;23.20;;;1.30;99.90;;;-0.65;100.00;100056.09;5010883;28;20279;-80
2020/12/06 06:19:44;;;;;;;37.63;24.50;;;1.30;99.90;;;-0.62;100.00;100057.78;5016850;28;20274;-79
2020/12/06 06:22:34;;;;;;;38.40;23.43;;;1.30;99.90;;;-0.59;100.00;100056.16;5019388;28;20215;-84
2020/12/06 06:25:21;;;;;;;37.23;24.27;;;1.40;99.90;;;-0.57;100.00;100051.06;5009014;28;20316;-81
2020/12/06 06:28:06;;;;;;;36.17;23.53;;;1.30;99.90;;;-0.54;100.00;100048.56;5020960;28;20272;-81
2020/12/06 06:30:54;;;;;;;39.87;25.10;;;1.40;99.90;;;-0.55;100.00;100054.47;5019905;28;20763;-79
2020/12/06 08:34:36;;;;;;;57.60;31.93;;;1.50;99.90;;;0.04;100.00;100076.00;4915450;29;20227;-80
2020/12/06 08:37:22;;;;;;;51.60;30.53;;;1.50;99.90;;;0.04;100.00;100080.25;4964653;28;20254;-80
2020/12/06 08:40:10;;;;;;;55.33;30.73;;;1.50;99.90;;;0.04;100.00;100081.09;4985299;28;20312;-80
2020/12/06 08:42:58;;;;;;;53.37;31.03;;;1.60;99.90;;;0.11;100.00;100090.47;5014161;28;20687;-78
2020/12/06 08:45:44;;;;;;;52.30;28.83;;;1.60;99.90;;;0.15;100.00;100091.34;5009774;28;20285;-80
2020/12/06 08:48:29;;;;;;;48.70;28.20;;;1.60;99.90;;;0.14;100.00;100082.84;5020742;28;20216;-80
2020/12/06 08:51:30;;;;;;;53.00;31.20;;;1.70;99.90;;;0.21;100.00;100073.56;5006975;28;20216;-79
2020/12/06 08:54:32;;;;;;;56.77;32.93;;;1.70;99.90;;;0.26;100.00;100071.88;5009500;28;20224;-80
2020/12/06 08:57:20;;;;;;;61.27;31.87;;;1.80;99.90;;;0.33;100.00;100078.69;5027338;28;20343;-80
2020/12/06 09:00:08;;;;;;;56.90;29.43;;;1.80;99.90;;;0.34;100.00;100075.31;5013438;28;20267;-79
2020/12/06 09:02:59;;;;;;;57.63;32.13;;;1.90;99.90;;;0.40;100.00;100073.63;5010157;28;20216;-80
2020/12/06 09:05:46;;;;;;;59.50;31.70;;;1.90;99.90;;;0.42;100.00;100082.97;5015622;28;20216;-80
2020/12/06 09:08:31;;;;;;;57.73;30.57;;;2.00;99.90;;;0.45;100.00;100077.91;5022500;28;20215;-80
2020/12/06 09:11:20;;;;;;;52.87;30.57;;;2.00;99.90;;;0.52;100.00;100074.53;5013956;28;20208;-81
2020/12/06 09:14:08;;;;;;;62.27;33.80;;;2.00;99.90;;;0.58;100.00;100073.69;5019304;28;20228;-80
2020/12/06 09:16:53;;;;;;;58.20;32.97;;;2.10;99.90;;;0.62;100.00;100085.59;5018873;28;20216;-81
2020/12/06 09:19:39;;;;;;;54.07;31.60;;;2.20;99.90;;;0.67;100.00;100088.16;5015335;28;20454;-81
2020/12/06 09:22:24;;;;;;;54.43;32.53;;;2.20;99.90;;;0.83;100.00;100094.16;5016507;28;20208;-81
2020/12/06 09:25:09;;;;;;;68.70;36.00;;;2.30;99.90;;;1.02;100.00;100078.03;5015408;28;20343;-79
2020/12/06 09:27:55;;;;;;;69.87;37.70;;;2.40;99.90;;;1.30;100.00;100060.25;5017404;28;20224;-81
2020/12/06 09:30:40;;;;;;;70.53;36.53;;;2.40;99.90;;;1.48;100.00;100053.44;5021510;28;20204;-81
2020/12/06 09:33:28;;;;;;;86.63;43.33;;;2.50;99.90;;;1.46;100.00;100048.34;5016486;28;20207;-80
2020/12/06 09:36:13;;;;;;;89.83;43.47;;;2.60;99.90;;;1.40;100.00;100061.94;5016147;28;20237;-77
2020/12/06 09:38:59;;;;;;;81.37;41.23;;;2.80;99.90;;;1.45;100.00;100073.81;5014254;28;20231;-81
2020/12/06 09:41:46;;;;;;;68.07;38.83;;;2.90;99.90;;;1.44;100.00;100072.97;5011598;28;20212;-81
2020/12/06 09:44:32;;;;;;;63.13;34.87;;;3.00;99.90;;;1.51;100.00;100069.56;5019462;28;20239;-79
2020/12/06 09:47:17;;;;;;;60.43;34.10;;;3.10;99.90;;;1.54;100.00;100058.53;5014468;28;20411;-81
2020/12/06 09:50:03;;;;;;;50.97;29.87;;;3.00;99.90;;;1.60;100.00;100066.16;5014313;28;20273;-80
2020/12/06 09:52:48;;;;;;;47.40;29.00;;;3.30;99.90;;;1.70;100.00;100062.75;5014619;28;20289;-80
2020/12/06 09:55:36;;;;;;;51.53;30.13;;;3.30;99.90;;;1.80;100.00;100055.94;5014957;28;20228;-80
2020/12/06 09:58:25;;;;;;;46.73;29.07;;;3.40;99.90;;;1.86;100.00;100040.63;5009180;28;20220;-78
2020/12/06 10:01:11;;;;;;;49.37;29.27;;;3.50;99.90;;;1.95;100.00;100024.44;5009871;28;20212;-78
2020/12/06 10:03:57;;;;;;;47.83;29.20;;;3.60;99.90;;;2.01;100.00;100019.31;5006964;28;20722;-78
2020/12/06 10:06:44;;;;;;;45.00;27.03;;;3.60;99.90;;;2.10;100.00;100014.19;5010172;28;20224;-76
2020/12/06 10:09:31;;;;;;;45.10;27.67;;;3.70;99.90;;;2.24;100.00;100010.72;5008489;28;21425;-77
2020/12/06 10:12:16;;;;;;;44.10;27.10;;;3.80;99.90;;;2.40;100.00;100006.41;5012876;28;20240;-78
2020/12/06 10:15:05;;;;;;;46.27;26.97;;;3.90;99.90;;;2.61;100.00;99992.66;5010099;28;20298;-80
2020/12/06 10:17:53;;;;;;;47.53;27.07;;;4.00;99.90;;;2.86;100.00;99992.50;5008973;28;20228;-78
2020/12/06 10:20:38;;;;;;;46.73;27.77;;;4.10;99.90;;;3.23;100.00;99984.53;5013626;28;20685;-79
2020/12/06 10:23:23;;;;;;;44.53;25.90;;;4.20;99.90;;;3.46;100.00;99985.16;5011031;28;20235;-78
2020/12/06 10:26:08;;;;;;;46.80;28.37;;;4.50;99.90;;;3.55;100.00;99991.03;5007998;28;20332;-79
2020/12/06 10:28:54;;;;;;;43.47;26.00;;;4.50;99.90;;;3.56;100.00;99992.72;5007150;28;20236;-78
2020/12/06 10:31:38;;;;;;;37.63;24.13;;;4.60;99.90;;;3.57;100.00;100002.94;5008279;28;20671;-79
2020/12/06 10:34:25;;;;;;;35.53;22.53;;;4.80;99.90;;;3.58;100.00;100001.25;5007117;28;20232;-78
2020/12/06 10:37:11;;;;;;;33.70;20.37;;;4.90;99.90;;;3.43;100.00;99992.00;5006171;28;20223;-77
2020/12/06 10:39:56;;;;;;;28.33;19.03;;;5.10;99.90;;;3.42;100.00;100001.38;5009068;28;20615;-77
2020/12/06 10:42:41;;;;;;;31.27;19.27;;;5.20;99.90;;;3.79;100.00;100010.38;5010676;28;20570;-77
2020/12/06 10:45:26;;;;;;;30.10;19.77;;;5.40;99.90;;;4.28;100.00;99994.47;5010756;28;20731;-77
2020/12/06 10:48:11;;;;;;;28.60;19.27;;;5.50;99.90;;;4.44;100.00;99986.56;5007746;28;20283;-77
2020/12/06 10:50:57;;;;;;;27.03;18.83;;;5.70;99.90;;;4.60;100.00;99990.59;5006853;28;20220;-78
2020/12/06 10:53:43;;;;;;;28.73;17.83;;;6.00;99.90;;;4.23;100.00;99988.53;5010711;28;20361;-77
2020/12/06 10:56:29;;;;;;;25.70;17.13;;;6.20;99.90;;;4.03;100.00;99996.47;5009467;28;20563;-77
2020/12/06 10:59:14;;;;;;;25.53;17.53;;;6.50;99.90;;;3.85;100.00;100005.19;5010674;28;20226;-78
2020/12/06 11:02:00;;;;;;;27.10;17.60;;;6.70;99.90;;;3.86;100.00;100005.19;5010889;28;20822;-77
2020/12/06 11:04:45;;;;;;;26.13;17.80;;;6.80;99.90;;;4.06;100.00;99995.59;5007072;28;20544;-78
2020/12/06 11:07:31;;;;;;;26.57;18.07;;;7.00;99.90;;;4.03;100.00;99993.91;5008858;28;20212;-78
2020/12/06 11:10:16;;;;;;;28.33;18.23;;;7.10;99.90;;;4.10;100.00;99992.97;5013541;28;20230;-78
2020/12/06 11:13:02;;;;;;;26.13;16.70;;;7.20;99.90;;;4.15;100.00;99988.66;5012748;28;20211;-78
2020/12/06 11:15:47;;;;;;;26.70;17.53;;;7.30;99.90;;;4.00;100.00;99996.50;5007907;28;20236;-79
2020/12/06 11:18:33;;;;;;;23.80;17.07;;;7.40;99.90;;;3.81;100.00;100001.84;5002437;28;20215;-79
2020/12/06 11:21:20;;;;;;;23.43;16.47;;;7.50;99.90;;;3.84;100.00;100001.81;5009856;28;20213;-79
2020/12/06 11:24:06;;;;;;;25.03;18.90;;;7.60;99.90;;;3.82;100.00;100010.34;5010420;28;20239;-79
2020/12/06 11:26:51;;;;;;;25.77;18.63;;;7.60;99.90;;;3.68;100.00;100013.06;5001456;28;20645;-79
2020/12/06 11:29:36;;;;;;;25.50;17.73;;;7.70;99.90;;;3.58;100.00;100016.59;5007903;28;20220;-79
2020/12/06 11:32:25;;;;;;;25.13;17.00;;;7.70;99.90;;;3.55;100.00;100012.34;5012963;28;20270;-77
2020/12/06 11:35:10;;;;;;;26.10;17.57;;;7.70;99.90;;;3.53;100.00;100020.88;5012892;28;20236;-79
2020/12/06 11:37:56;;;;;;;26.07;17.60;;;7.70;99.90;;;3.55;100.00;100022.56;5004590;28;20223;-78
2020/12/06 11:40:42;;;;;;;25.53;18.10;;;7.60;99.90;;;3.55;100.00;100021.72;4999933;28;20740;-81
2020/12/06 11:43:27;;;;;;;26.90;17.90;;;7.60;99.90;;;3.50;100.00;100030.28;5006026;28;20343;-79
2020/12/06 11:46:13;;;;;;;25.17;17.27;;;7.60;99.90;;;3.58;100.00;100032.75;5012451;28;20308;-81
2020/12/06 11:48:58;;;;;;;24.53;17.43;;;7.50;99.90;;;3.72;100.00;100037.75;5002144;28;20255;-78
2020/12/06 11:51:43;;;;;;;25.63;17.53;;;7.50;99.90;;;3.57;100.00;100048.97;5003264;28;20564;-80
2020/12/06 11:54:29;;;;;;;24.37;17.30;;;7.50;99.90;;;3.54;100.00;100048.16;5000039;28;20692;-78
2020/12/06 11:57:15;;;;;;;24.70;16.90;;;7.40;99.90;;;3.64;100.00;100039.53;5005065;28;20208;-80
2020/12/06 12:00:00;;;;;;;27.63;17.53;;;7.40;99.90;;;3.59;100.00;100023.38;5005280;28;20212;-80
2020/12/06 12:02:45;;;;;;;27.57;17.83;;;7.40;99.90;;;3.57;100.00;100020.84;5006683;28;20578;-79
2020/12/06 12:05:31;;;;;;;25.73;17.63;;;7.30;99.90;;;3.64;100.00;100019.91;5008125;28;20243;-79
2020/12/06 12:08:16;;;;;;;27.00;18.37;;;7.30;99.90;;;3.63;100.00;100004.59;5015633;28;20315;-78
2020/12/06 12:11:03;;;;;;;26.70;17.80;;;7.20;99.90;;;3.64;100.00;99999.44;5015464;28;20212;-78
2020/12/06 12:13:48;;;;;;;26.97;18.00;;;7.20;99.90;;;3.79;100.00;99993.31;5006843;28;20716;-77
2020/12/06 12:16:33;;;;;;;25.40;16.97;;;7.20;99.90;;;3.90;100.00;99982.97;5018078;28;20315;-77
2020/12/06 12:19:19;;;;;;;25.77;17.60;;;7.20;99.90;;;3.98;100.00;99982.88;5012154;28;20216;-77
2020/12/06 12:22:04;;;;;;;28.17;18.63;;;7.20;99.90;;;4.00;100.00;99984.56;5013452;28;20216;-80
2020/12/06 12:24:49;;;;;;;27.37;18.10;;;7.10;99.90;;;3.99;100.00;99987.16;5009085;28;20224;-77
2020/12/06 12:27:34;;;;;;;27.47;18.37;;;7.10;99.90;;;3.91;100.00;99991.50;5008813;28;20204;-78
2020/12/06 12:30:21;;;;;;;27.03;18.47;;;7.10;99.90;;;3.88;100.00;99986.41;5007200;28;20256;-78
2020/12/06 12:33:06;;;;;;;26.43;17.97;;;7.10;99.90;;;3.84;100.00;99990.72;5009001;28;20216;-79
2020/12/06 12:35:52;;;;;;;26.17;18.10;;;7.30;99.90;;;3.89;100.00;99985.56;5012637;28;20212;-79
2020/12/06 12:38:37;;;;;;;25.40;16.53;;;7.10;99.90;;;3.89;100.00;99988.97;5007889;28;20216;-78
2020/12/06 12:41:22;;;;;;;27.33;17.80;;;7.10;99.90;;;3.95;100.00;99995.72;5009596;28;20683;-78
2020/12/06 12:44:09;;;;;;;26.33;17.93;;;7.10;99.90;;;3.98;100.00;99993.13;5016574;28;20236;-75
2020/12/06 12:46:57;;;;;;;26.30;17.17;;;7.10;99.90;;;4.02;100.00;99993.06;5012162;28;20251;-76
2020/12/06 12:49:43;;;;;;;28.33;18.43;;;7.10;99.90;;;3.92;100.00;99999.16;5022006;28;20252;-76
2020/12/06 12:52:28;;;;;;;28.20;18.43;;;7.00;99.90;;;3.88;100.00;99994.09;5019019;28;20259;-76
2020/12/06 12:55:15;;;;;;;28.77;18.13;;;7.00;99.90;;;3.90;100.00;100010.25;5006609;28;20748;-76
2020/12/06 12:58:01;;;;;;;28.07;19.17;;;7.00;99.90;;;3.86;100.00;100014.56;5009700;28;20204;-77
2020/12/06 13:00:46;;;;;;;27.90;18.77;;;7.00;99.90;;;3.75;100.00;100014.69;5010243;28;20211;-78
2020/12/06 13:03:32;;;;;;;27.77;18.33;;;7.00;99.90;;;3.77;100.00;100017.25;5007632;28;20280;-78
2020/12/06 13:06:18;;;;;;;27.37;17.93;;;7.00;99.90;;;3.77;100.00;100004.44;5003542;28;20201;-79
2020/12/06 13:09:04;;;;;;;29.87;18.60;;;6.90;99.90;;;3.80;100.00;99996.75;5011069;28;20212;-78
2020/12/06 13:11:49;;;;;;;28.50;18.27;;;6.90;99.90;;;3.76;100.00;99989.97;5008204;28;20693;-78
2020/12/06 13:14:34;;;;;;;28.43;18.50;;;6.90;99.90;;;3.73;100.00;99985.72;5002979;28;20750;-78
2020/12/06 13:17:20;;;;;;;28.77;19.10;;;6.90;99.90;;;3.76;100.00;99978.00;5005155;28;20229;-78
2020/12/06 13:20:06;;;;;;;30.10;18.97;;;6.80;99.90;;;3.74;100.00;99977.19;5008166;28;20274;-79
2020/12/06 13:22:51;;;;;;;27.73;19.27;;;6.80;99.90;;;3.76;100.00;99975.44;5012583;28;20216;-78